Cave In Rock, Illinois
Current Conditions -  °F | °C
As of 2:15 PM on Monday 24 Nov 2014 (Local Time) from K5M9 Reporting Station
Broken Clouds Broken Clouds  
Wind Chill: 43°   Ceiling: 4000
Heat Index: 49°   Visibility: 10mi
Dew Point: 33°   Wind: 20mph
Humidity: 54%   Direction: 250°WSW
Pressure: 29.78"   Gusts: 29mph
Location:  37.47°N, 88.17°W
Report Text: K5M9 242015Z AUTO 25017G25KT 10SM BKN040 10/01 A2978 RMK AO2 T00950006
Loading
Personal Weather Stations






























Interactive Weather Map New forecast layout! Learn more

10-Day Weather Forecast

Advertisements
Track Severe Weather on mobile